Time;durP1;ratioP1;P1;durP2;ratioP2;P2;SDS_P1;SDS_P2;PMS_P1;PMS_P2;Temp;Humidity;BMP_temperature;BMP_pressure;BME280_temperature;BME280_humidity;BME280_pressure;Samples;Min_cycle;Max_cycle;Signal;HPM_P1;HPM_P2
2022/12/30 00:00:38;;;;;;;5.78;2.33;;;6.90;40.30;;;;;;5091041;28;20278;-82
2022/12/30 00:03:04;;;;;;;4.50;1.83;;;6.90;43.60;;;;;;5089967;28;20115;-83
2022/12/30 00:05:30;;;;;;;8.65;2.25;;;6.90;49.70;;;;;;5090994;28;20039;-82
2022/12/30 00:07:57;;;;;;;8.32;3.70;;;6.90;53.90;;;;;;5091357;28;20051;-82
2022/12/30 00:10:23;;;;;;;11.50;4.63;;;7.00;55.20;;;;;;5091064;28;20374;-82
2022/12/30 00:35:23;;;;;;;11.73;3.55;;;7.00;51.50;;;;;;5053355;28;20378;-82
2022/12/30 00:37:49;;;;;;;5.35;2.00;;;6.90;50.90;;;;;;5071822;28;20508;-82
2022/12/30 00:40:16;;;;;;;6.07;4.05;;;7.00;53.10;;;;;;5053643;28;20035;-82
2022/12/30 00:45:27;;;;;;;7.25;2.50;;;6.90;53.50;;;;;;5071514;28;20036;-82
2022/12/30 00:47:53;;;;;;;8.02;1.80;;;6.90;54.90;;;;;;5053880;28;20051;-81
2022/12/30 00:58:34;;;;;;;6.18;1.60;;;6.70;56.30;;;;;;5075639;28;20040;-82
2022/12/30 01:01:00;;;;;;;8.23;3.47;;;6.70;59.30;;;;;;5057906;28;20470;-82
2022/12/30 01:03:26;;;;;;;15.90;2.63;;;6.60;58.70;;;;;;5039919;28;20044;-82
2022/12/30 01:05:52;;;;;;;8.43;2.65;;;6.50;58.60;;;;;;5055790;28;20044;-81
2022/12/30 01:08:18;;;;;;;10.95;2.50;;;6.40;60.70;;;;;;5065644;28;20037;-81
2022/12/30 01:10:44;;;;;;;4.20;1.83;;;6.40;64.30;;;;;;5072182;28;20035;-81
2022/12/30 01:13:11;;;;;;;6.38;1.73;;;6.30;64.50;;;;;;5082911;28;20025;-81
2022/12/30 01:15:37;;;;;;;9.00;2.33;;;6.20;65.40;;;;;;5048649;28;20478;-81
2022/12/30 01:18:04;;;;;;;5.95;2.00;;;6.30;73.30;;;;;;5059445;28;20052;-81
2022/12/30 01:20:30;;;;;;;10.75;1.63;;;6.30;69.70;;;;;;5056642;28;20055;-82
2022/12/30 01:22:56;;;;;;;7.55;2.65;;;6.30;68.20;;;;;;5074412;28;20039;-81
2022/12/30 01:25:22;;;;;;;9.45;1.88;;;6.30;65.00;;;;;;5074617;28;20039;-81
2022/12/30 01:27:51;;;;;;;5.97;1.83;;;6.30;57.20;;;;;;5041484;28;20054;-81
2022/12/30 01:30:17;;;;;;;13.30;2.60;;;6.30;53.00;;;;;;5056858;28;20397;-81
2022/12/30 01:32:44;;;;;;;11.40;2.97;;;6.20;50.10;;;;;;5075197;28;20033;-81
2022/12/30 01:35:11;;;;;;;8.25;2.25;;;6.10;50.80;;;;;;5077309;28;20036;-82
2022/12/30 01:37:37;;;;;;;5.70;2.25;;;5.90;51.10;;;;;;5066228;28;20051;-82
2022/12/30 01:40:04;;;;;;;11.77;2.40;;;5.80;56.50;;;;;;5057511;28;20032;-82
2022/12/30 01:42:37;;;;;;;7.20;2.03;;;5.90;62.60;;;;;;5039148;28;20037;-81
2022/12/30 01:45:20;;;;;;;6.35;2.10;;;5.80;62.90;;;;;;5057161;28;20029;-81
2022/12/30 01:48:10;;;;;;;5.90;2.15;;;5.90;63.60;;;;;;5057298;28;20044;-82
2022/12/30 01:50:44;;;;;;;8.23;1.85;;;5.80;58.30;;;;;;5056662;28;20064;-82
2022/12/30 01:53:18;;;;;;;12.55;2.10;;;5.80;56.50;;;;;;5043504;28;20041;-82
2022/12/30 01:56:01;;;;;;;5.53;1.63;;;5.70;61.20;;;;;;5041432;28;20052;-82
2022/12/30 01:58:34;;;;;;;7.60;1.73;;;5.80;70.90;;;;;;5056676;28;20048;-81
2022/12/30 02:01:04;;;;;;;8.93;3.03;;;6.00;67.40;;;;;;5041029;28;20045;-81
2022/12/30 02:03:44;;;;;;;9.82;2.15;;;6.10;55.30;;;;;;5072812;28;20036;-82
2022/12/30 02:06:16;;;;;;;8.70;2.00;;;6.10;50.20;;;;;;5073832;28;20036;-82
2022/12/30 02:08:42;;;;;;;6.72;1.75;;;6.00;48.30;;;;;;5074832;28;20119;-82
2022/12/30 02:11:08;;;;;;;10.75;2.88;;;6.00;49.10;;;;;;5075006;28;20041;-82
2022/12/30 02:13:35;;;;;;;5.43;1.48;;;6.00;49.30;;;;;;5055103;28;20040;-83
2022/12/30 02:16:40;;;;;;;12.07;1.85;;;6.10;46.50;;;;;;5047915;28;20386;-82
2022/12/30 02:19:35;;;;;;;7.90;2.30;;;6.20;40.70;;;;;;5095369;28;20044;-83
2022/12/30 02:22:20;;;;;;;7.95;1.60;;;6.30;28.00;;;;;;5040657;28;20051;-82
2022/12/30 02:24:55;;;;;;;6.63;2.08;;;6.20;23.60;;;;;;5092125;28;20048;-82
2022/12/30 02:27:40;;;;;;;7.45;2.30;;;6.00;23.30;;;;;;5092408;28;20224;-83
2022/12/30 02:30:18;;;;;;;15.45;6.55;;;5.80;26.40;;;;;;5093500;28;20051;-82
2022/12/30 02:33:08;;;;;;;15.77;6.70;;;5.70;30.10;;;;;;5091991;28;20040;-82
2022/12/30 02:35:49;;;;;;;9.27;4.27;;;5.50;33.70;;;;;;5088959;28;20502;-82
2022/12/30 02:38:58;;;;;;;8.02;2.40;;;5.30;40.90;;;;;;5088283;28;20063;-82
2022/12/30 02:44:37;;;;;;;9.32;2.10;;;5.00;58.00;;;;;;5086683;28;20043;-82
2022/12/30 02:47:19;;;;;;;5.15;1.85;;;5.00;80.50;;;;;;5091546;28;20043;-82
2022/12/30 02:52:14;;;;;;;8.80;2.00;;;5.00;94.90;;;;;;5076596;28;20051;-82
2022/12/30 02:52:38;;;;;;;9.57;1.92;;;5.00;96.50;;;;;;5091058;28;20493;-82
2022/12/30 02:55:05;;;;;;;8.55;2.15;;;5.00;97.80;;;;;;5092932;28;20409;-82
2022/12/30 02:57:34;;;;;;;11.95;2.78;;;4.90;96.10;;;;;;5091959;28;20047;-82
2022/12/30 03:06:31;;;;;;;8.95;2.30;;;4.80;99.90;;;;;;5087853;28;20044;-82
2022/12/30 03:09:14;;;;;;;16.00;4.63;;;5.00;99.90;;;;;;5094329;28;20044;-82
2022/12/30 03:12:09;;;;;;;15.25;4.28;;;5.00;99.90;;;;;;5070770;28;20055;-82
2022/12/30 03:14:50;;;;;;;10.18;3.28;;;5.10;99.90;;;;;;5092083;28;20043;-81
2022/12/30 03:17:25;;;;;;;8.02;2.42;;;5.20;99.90;;;;;;5090882;28;20051;-82
2022/12/30 03:19:55;;;;;;;9.77;2.90;;;5.40;99.90;;;;;;5076069;28;20044;-82
2022/12/30 03:27:58;;;;;;;5.30;1.80;;;5.80;99.90;;;;;;5092074;28;20039;-82
2022/12/30 03:30:25;;;;;;;5.70;2.20;;;5.90;95.50;;;;;;5074982;28;20040;-81
2022/12/30 03:32:51;;;;;;;8.23;2.65;;;6.10;87.60;;;;;;5093848;28;20039;-81
2022/12/30 03:35:19;;;;;;;7.80;2.72;;;6.10;69.60;;;;;;5075288;28;20036;-82
2022/12/30 03:37:49;;;;;;;10.88;2.45;;;6.00;57.70;;;;;;5092168;28;20039;-82
2022/12/30 03:40:15;;;;;;;15.07;2.72;;;5.80;54.10;;;;;;5092052;28;20366;-82
2022/12/30 03:42:43;;;;;;;6.60;1.70;;;5.70;56.80;;;;;;5091047;28;20061;-82
2022/12/30 03:45:10;;;;;;;10.38;3.67;;;5.60;63.00;;;;;;5093139;28;20028;-82
2022/12/30 03:47:36;;;;;;;10.60;2.15;;;5.50;72.90;;;;;;5095650;28;20032;-81
2022/12/30 03:50:03;;;;;;;11.93;3.22;;;5.50;78.20;;;;;;5093405;28;20036;-81
2022/12/30 03:52:29;;;;;;;8.20;1.92;;;5.40;85.50;;;;;;5092232;28;20036;-82
2022/12/30 03:54:55;;;;;;;11.88;2.05;;;5.30;91.60;;;;;;5075111;28;20044;-82
2022/12/30 03:57:21;;;;;;;8.15;3.58;;;5.20;95.00;;;;;;5089801;28;20040;-82
2022/12/30 03:59:48;;;;;;;6.82;2.47;;;5.10;96.60;;;;;;5092127;28;20047;-82
2022/12/30 04:02:14;;;;;;;5.78;2.30;;;5.00;99.90;;;;;;5093442;28;20028;-82
2022/12/30 04:04:40;;;;;;;8.65;2.58;;;5.00;99.90;;;;;;5092389;28;20032;-82
2022/12/30 04:07:06;;;;;;;8.52;2.92;;;4.90;99.90;;;;;;5073264;28;20040;-82
2022/12/30 04:09:32;;;;;;;7.53;2.30;;;4.90;99.90;;;;;;5092583;28;20032;-82
2022/12/30 04:11:59;;;;;;;4.43;1.77;;;4.90;99.90;;;;;;5091726;28;20031;-82
2022/12/30 04:14:25;;;;;;;8.52;2.63;;;4.90;99.90;;;;;;5090746;28;20047;-81
2022/12/30 04:16:51;;;;;;;12.30;2.90;;;5.00;99.90;;;;;;5090169;28;20081;-82
2022/12/30 04:19:17;;;;;;;9.18;2.58;;;5.00;99.90;;;;;;5092784;28;20036;-82
2022/12/30 04:21:43;;;;;;;11.55;3.42;;;5.00;99.90;;;;;;5084096;28;20050;-82
2022/12/30 04:24:10;;;;;;;10.07;3.30;;;4.90;99.90;;;;;;5091828;28;20027;-82
2022/12/30 04:26:36;;;;;;;15.07;3.80;;;4.90;99.90;;;;;;5090993;28;20027;-82
2022/12/30 04:29:02;;;;;;;11.18;3.22;;;4.80;99.90;;;;;;5090582;28;20039;-82
2022/12/30 04:31:28;;;;;;;9.38;4.18;;;4.70;99.90;;;;;;5091603;28;20032;-83
2022/12/30 04:33:54;;;;;;;13.68;3.92;;;4.70;99.90;;;;;;5093056;28;20039;-83
2022/12/30 04:36:21;;;;;;;11.75;4.10;;;4.70;99.90;;;;;;5090496;28;20028;-83
2022/12/30 04:38:48;;;;;;;11.10;3.55;;;4.60;99.90;;;;;;5091378;28;20397;-82
2022/12/30 04:41:14;;;;;;;8.38;3.35;;;4.60;99.90;;;;;;5091059;28;20499;-83
2022/12/30 04:43:40;;;;;;;13.55;4.57;;;4.50;99.90;;;;;;5073807;28;20040;-82
2022/12/30 04:46:06;;;;;;;11.60;4.15;;;4.50;99.90;;;;;;5089003;28;20040;-82
2022/12/30 04:48:33;;;;;;;9.15;3.22;;;4.50;99.90;;;;;;5090344;28;20557;-82
2022/12/30 04:50:59;;;;;;;6.50;3.65;;;4.40;99.90;;;;;;5090402;28;20050;-83
2022/12/30 04:53:25;;;;;;;10.15;3.45;;;4.40;99.90;;;;;;5090593;28;20373;-82
2022/12/30 04:55:55;;;;;;;12.68;3.67;;;4.40;99.90;;;;;;5091194;28;20480;-82
2022/12/30 04:58:22;;;;;;;13.20;4.15;;;4.40;99.90;;;;;;5073605;28;20048;-82
2022/12/30 05:00:49;;;;;;;10.07;4.50;;;4.40;99.90;;;;;;5074038;28;20040;-82
2022/12/30 05:03:15;;;;;;;12.55;3.88;;;4.50;99.90;;;;;;5091379;28;20036;-83
2022/12/30 05:05:42;;;;;;;10.77;4.10;;;4.60;99.90;;;;;;5073326;28;20043;-81
2022/12/30 05:08:08;;;;;;;12.77;4.95;;;4.50;99.90;;;;;;5091821;28;20454;-82
2022/12/30 05:10:35;;;;;;;11.00;4.30;;;4.50;99.90;;;;;;5090648;28;20384;-82
2022/12/30 05:13:01;;;;;;;11.77;4.07;;;4.50;99.90;;;;;;5090877;28;20036;-82
2022/12/30 05:15:28;;;;;;;10.23;3.97;;;4.50;99.90;;;;;;5089283;28;20387;-84
2022/12/30 05:17:54;;;;;;;14.48;4.82;;;4.40;99.90;;;;;;5052859;28;20040;-82
2022/12/30 05:20:20;;;;;;;10.35;4.40;;;4.40;99.90;;;;;;5054141;28;20037;-82
2022/12/30 05:22:46;;;;;;;10.98;4.47;;;4.40;99.90;;;;;;5071403;28;20041;-82
2022/12/30 05:27:57;;;;;;;6.60;3.05;;;4.30;99.90;;;;;;5065873;28;20036;-82
2022/12/30 05:30:24;;;;;;;12.13;3.90;;;4.30;99.90;;;;;;5044394;28;20408;-82
2022/12/30 05:32:50;;;;;;;10.25;3.80;;;4.30;99.90;;;;;;5083930;28;20027;-82
2022/12/30 05:35:16;;;;;;;11.65;3.95;;;4.30;99.90;;;;;;5059996;28;20040;-82
2022/12/30 05:37:42;;;;;;;11.10;4.22;;;4.40;99.90;;;;;;5043664;28;20040;-82
2022/12/30 05:40:10;;;;;;;11.82;4.18;;;4.30;99.90;;;;;;5060926;28;20047;-81
2022/12/30 05:42:36;;;;;;;16.77;5.38;;;4.30;99.90;;;;;;5059261;28;20041;-82
2022/12/30 05:45:04;;;;;;;12.13;4.15;;;4.20;99.90;;;;;;5075834;28;20051;-82
2022/12/30 05:47:30;;;;;;;18.42;5.22;;;4.20;99.90;;;;;;5038379;28;20496;-81
2022/12/30 05:49:56;;;;;;;12.65;5.50;;;4.10;99.90;;;;;;5049209;28;20043;-83
2022/12/30 05:52:23;;;;;;;14.50;8.35;;;4.10;99.90;;;;;;5053893;28;20037;-81
2022/12/30 05:54:49;;;;;;;15.73;7.70;;;4.10;99.90;;;;;;5074532;28;20393;-80
2022/12/30 05:57:15;;;;;;;15.25;5.72;;;4.20;99.90;;;;;;5055381;28;20036;-80
2022/12/30 05:59:41;;;;;;;14.27;4.70;;;4.20;99.90;;;;;;5046528;28;20055;-80
2022/12/30 06:02:07;;;;;;;8.80;4.22;;;4.20;99.90;;;;;;5039942;28;20056;-79
2022/12/30 06:04:34;;;;;;;13.40;3.88;;;4.20;99.90;;;;;;5074654;28;20039;-80
2022/12/30 06:07:00;;;;;;;15.23;4.35;;;4.20;99.90;;;;;;5055385;28;20040;-81
2022/12/30 06:09:26;;;;;;;19.73;4.72;;;4.20;99.90;;;;;;5056682;28;20040;-81
2022/12/30 06:11:52;;;;;;;16.20;4.70;;;4.10;99.90;;;;;;5057401;28;20508;-82
2022/12/30 06:14:20;;;;;;;9.88;4.15;;;4.00;99.90;;;;;;5057622;28;20028;-82
2022/12/30 06:16:47;;;;;;;12.27;4.97;;;4.00;99.90;;;;;;5072995;28;20402;-82
2022/12/30 06:19:13;;;;;;;11.63;6.07;;;4.00;99.90;;;;;;5040296;28;20051;-83
2022/12/30 06:21:39;;;;;;;10.93;5.68;;;4.10;99.90;;;;;;5057050;28;20045;-83
2022/12/30 06:24:06;;;;;;;11.23;5.97;;;4.10;99.90;;;;;;5056536;28;20507;-82
2022/12/30 06:26:32;;;;;;;13.00;5.20;;;4.00;99.90;;;;;;5066748;28;20033;-83
2022/12/30 06:28:58;;;;;;;10.60;4.93;;;3.90;99.90;;;;;;5058123;28;20052;-84
2022/12/30 06:31:24;;;;;;;13.18;5.65;;;3.90;99.90;;;;;;5058285;28;20044;-84
2022/12/30 06:33:51;;;;;;;11.68;4.90;;;3.80;99.90;;;;;;5058264;28;20036;-88
2022/12/30 06:36:17;;;;;;;14.65;4.78;;;3.80;99.90;;;;;;5058174;28;20052;-88
2022/12/30 06:38:43;;;;;;;12.68;5.13;;;3.90;99.90;;;;;;5053615;28;20041;-87
2022/12/30 06:41:09;;;;;;;27.17;14.15;;;4.00;99.90;;;;;;5070522;28;20393;-85
2022/12/30 06:43:35;;;;;;;20.98;9.45;;;4.00;99.90;;;;;;5051948;28;20425;-81
2022/12/30 06:46:01;;;;;;;42.53;20.92;;;4.00;99.90;;;;;;5066017;28;20028;-87
2022/12/30 06:48:27;;;;;;;34.45;17.80;;;4.00;99.90;;;;;;5052681;28;20043;-88
2022/12/30 06:51:01;;;;;;;97.15;49.95;;;4.00;99.90;;;;;;5069592;28;20024;-90
2022/12/30 06:53:27;;;;;;;46.63;22.52;;;3.90;99.90;;;;;;5068224;28;20035;-88
2022/12/30 06:55:54;;;;;;;279.73;146.38;;;3.90;99.90;;;;;;5053208;28;20043;-89
2022/12/30 06:58:20;;;;;;;85.35;40.83;;;3.90;99.90;;;;;;5080285;28;20051;-86
2022/12/30 07:00:46;;;;;;;337.60;188.57;;;4.00;99.90;;;;;;5062368;28;20028;-87
2022/12/30 07:03:13;;;;;;;235.77;115.40;;;4.00;99.90;;;;;;5072608;28;20047;-90
2022/12/30 07:05:39;;;;;;;100.15;46.67;;;4.00;99.90;;;;;;5077926;28;20049;-89
2022/12/30 07:08:05;;;;;;;101.15;46.10;;;4.10;99.90;;;;;;5058225;28;20122;-89
2022/12/30 07:10:32;;;;;;;72.03;32.45;;;4.10;99.90;;;;;;5045660;28;20481;-88
2022/12/30 07:12:58;;;;;;;364.95;166.73;;;4.10;99.90;;;;;;5075384;28;20028;-87
2022/12/30 07:15:25;;;;;;;297.38;139.63;;;4.10;99.90;;;;;;5054525;28;20083;-82
2022/12/30 07:17:51;;;;;;;116.53;51.05;;;4.10;99.90;;;;;;5090901;28;20051;-82
2022/12/30 07:20:17;;;;;;;47.45;22.17;;;4.20;99.90;;;;;;5092556;28;20051;-82
2022/12/30 07:22:44;;;;;;;177.50;90.75;;;4.20;99.90;;;;;;5076197;28;20055;-82
2022/12/30 07:25:10;;;;;;;249.73;130.45;;;4.30;99.90;;;;;;5076525;28;20043;-82
2022/12/30 07:27:36;;;;;;;154.13;79.57;;;4.20;99.90;;;;;;5085408;28;20039;-83
2022/12/30 07:30:04;;;;;;;473.17;296.95;;;4.30;99.90;;;;;;5090320;28;20039;-82
2022/12/30 07:32:30;;;;;;;253.88;141.05;;;4.30;99.90;;;;;;5086538;28;20036;-82
2022/12/30 07:34:56;;;;;;;86.38;50.67;;;4.30;99.90;;;;;;5099633;28;20028;-82
2022/12/30 07:37:22;;;;;;;56.42;26.98;;;4.30;99.90;;;;;;5097666;28;20469;-84
2022/12/30 07:39:48;;;;;;;41.00;21.45;;;4.40;99.90;;;;;;5095868;28;20062;-84
2022/12/30 07:42:14;;;;;;;31.75;16.23;;;4.40;99.90;;;;;;5096460;28;20040;-83
2022/12/30 07:44:42;;;;;;;44.88;23.23;;;4.40;99.90;;;;;;5092421;28;20040;-82
2022/12/30 07:47:08;;;;;;;171.13;82.93;;;4.50;99.90;;;;;;5093112;28;20040;-83
2022/12/30 07:49:35;;;;;;;55.50;27.67;;;4.50;99.90;;;;;;5092886;28;20039;-82
2022/12/30 07:52:01;;;;;;;35.70;18.38;;;4.50;99.90;;;;;;5089282;28;20070;-82
2022/12/30 07:54:27;;;;;;;35.50;19.95;;;4.60;99.90;;;;;;5087492;28;20032;-81
2022/12/30 07:56:53;;;;;;;46.65;26.90;;;4.60;99.90;;;;;;5091420;28;20032;-81
2022/12/30 07:59:19;;;;;;;38.53;21.58;;;4.60;99.90;;;;;;5091620;28;20036;-80
2022/12/30 08:01:45;;;;;;;26.90;16.83;;;4.60;99.90;;;;;;5090909;28;20028;-80
2022/12/30 08:04:11;;;;;;;28.80;17.58;;;4.60;99.90;;;;;;5091578;28;20039;-80
2022/12/30 08:06:37;;;;;;;26.40;18.17;;;4.60;99.90;;;;;;5091185;28;20384;-81
2022/12/30 08:09:05;;;;;;;29.52;18.55;;;4.60;99.90;;;;;;5091448;28;20044;-81
2022/12/30 08:11:32;;;;;;;26.83;17.35;;;4.70;99.90;;;;;;5089464;28;20500;-81
2022/12/30 08:13:58;;;;;;;24.83;14.52;;;4.70;99.90;;;;;;5070940;28;20045;-80
2022/12/30 08:16:25;;;;;;;23.63;14.07;;;4.80;99.90;;;;;;5089992;28;20052;-80
2022/12/30 08:18:51;;;;;;;19.17;11.60;;;4.80;99.90;;;;;;5090192;28;20226;-79
2022/12/30 08:21:18;;;;;;;22.52;13.82;;;4.80;99.90;;;;;;5089318;28;20044;-79
2022/12/30 08:23:46;;;;;;;20.80;11.95;;;5.00;99.90;;;;;;5073376;28;20047;-80
2022/12/30 08:26:23;;;;;;;18.05;10.68;;;5.00;99.90;;;;;;5091556;28;20032;-79
2022/12/30 08:28:50;;;;;;;39.53;22.73;;;5.10;99.90;;;;;;5090677;28;20043;-80
2022/12/30 08:31:19;;;;;;;31.05;18.10;;;5.20;99.90;;;;;;5090990;28;20032;-80
2022/12/30 08:33:46;;;;;;;21.17;12.82;;;5.20;99.90;;;;;;5090299;28;20389;-79
2022/12/30 08:36:14;;;;;;;20.90;11.52;;;5.30;99.90;;;;;;5092216;28;20054;-80
2022/12/30 08:38:43;;;;;;;20.05;13.00;;;5.40;99.90;;;;;;5089864;28;20508;-79
2022/12/30 08:41:21;;;;;;;20.42;12.73;;;5.40;99.90;;;;;;5072706;28;20044;-79
2022/12/30 08:43:48;;;;;;;17.52;8.57;;;5.50;99.90;;;;;;5073461;28;20047;-79
2022/12/30 08:46:16;;;;;;;19.60;9.48;;;5.50;99.90;;;;;;5091071;28;20032;-80
2022/12/30 08:48:42;;;;;;;11.75;7.30;;;5.60;99.90;;;;;;5072983;28;20401;-80
2022/12/30 08:51:09;;;;;;;19.23;11.43;;;5.70;99.90;;;;;;5073141;28;20032;-79
2022/12/30 08:53:35;;;;;;;13.20;6.60;;;5.80;99.90;;;;;;5073068;28;20043;-80
2022/12/30 08:56:18;;;;;;;11.43;6.97;;;5.90;99.90;;;;;;5091027;28;20028;-79
2022/12/30 08:58:44;;;;;;;16.45;9.65;;;5.90;99.90;;;;;;5090622;28;20028;-79
2022/12/30 09:01:13;;;;;;;11.50;7.03;;;6.00;99.90;;;;;;5089412;28;20036;-80
2022/12/30 09:03:42;;;;;;;11.48;6.22;;;6.10;99.90;;;;;;5090084;28;20040;-80
2022/12/30 09:06:10;;;;;;;7.57;4.93;;;6.20;99.90;;;;;;5090940;28;20043;-80
2022/12/30 09:08:36;;;;;;;9.07;3.92;;;6.30;99.90;;;;;;5090223;28;20048;-81
2022/12/30 09:11:05;;;;;;;11.45;4.65;;;6.30;99.90;;;;;;5089572;28;20044;-81
2022/12/30 09:13:32;;;;;;;6.55;3.85;;;6.50;99.90;;;;;;5073894;28;20041;-80
2022/12/30 09:15:58;;;;;;;5.45;2.65;;;6.50;99.90;;;;;;5074395;28;20350;-80
2022/12/30 09:18:24;;;;;;;6.32;2.50;;;6.70;99.90;;;;;;5075769;28;20036;-80
2022/12/30 09:20:50;;;;;;;7.45;3.85;;;6.70;99.90;;;;;;5073460;28;20036;-80
2022/12/30 09:23:17;;;;;;;8.23;2.97;;;6.70;99.90;;;;;;5045339;28;20041;-81
2022/12/30 09:25:43;;;;;;;7.07;2.92;;;6.90;99.90;;;;;;5038188;28;20041;-81
2022/12/30 09:28:10;;;;;;;4.72;2.20;;;6.90;99.90;;;;;;5057795;28;20036;-80
2022/12/30 09:30:36;;;;;;;3.80;1.65;;;7.00;77.80;;;;;;5055795;28;20040;-81
2022/12/30 09:33:02;;;;;;;4.63;1.77;;;7.10;53.40;;;;;;5047629;28;20036;-80
2022/12/30 09:35:28;;;;;;;4.45;1.63;;;7.10;31.10;;;;;;5057444;28;20048;-80
2022/12/30 09:37:54;;;;;;;4.53;1.30;;;7.20;20.40;;;;;;5057320;28;20032;-81
2022/12/30 09:40:35;;;;;;;3.47;1.05;;;7.30;13.10;;;;;;5055900;28;20052;-81
2022/12/30 09:43:17;;;;;;;3.45;1.10;;;7.30;10.00;;;;;;5057592;28;20044;-80
2022/12/30 09:46:07;;;;;;;7.85;2.45;;;7.40;6.90;;;;;;5040498;28;20083;-81
2022/12/30 09:48:46;;;;;;;4.47;1.35;;;7.50;4.70;;;;;;5075789;28;20025;-81
2022/12/30 09:51:18;;;;;;;2.28;1.30;;;7.60;2.00;;;;;;5055984;28;20044;-82
2022/12/30 09:53:56;;;;;;;6.28;1.45;;;7.70;1.00;;;;;;5057556;28;20037;-82
2022/12/30 09:56:35;;;;;;;2.97;0.75;;;7.80;1.00;;;;;;5063024;28;20488;-81
2022/12/30 09:59:16;;;;;;;4.72;1.42;;;7.90;1.00;;;;;;5054474;28;20041;-81
2022/12/30 10:01:49;;;;;;;2.70;1.10;;;7.90;1.00;;;;;;5051590;28;20052;-81
2022/12/30 10:04:18;;;;;;;5.28;2.42;;;8.00;1.00;;;;;;5082514;28;20035;-81
2022/12/30 10:06:56;;;;;;;6.82;2.05;;;8.00;1.00;;;;;;5065223;28;20033;-80
2022/12/30 10:09:26;;;;;;;6.30;1.55;;;8.10;1.00;;;;;;5041397;28;20052;-80
2022/12/30 10:11:59;;;;;;;4.28;1.77;;;8.10;1.00;;;;;;5038404;28;20516;-81
2022/12/30 10:14:40;;;;;;;2.30;0.82;;;8.20;1.00;;;;;;5040375;28;20044;-82
2022/12/30 10:17:28;;;;;;;2.22;0.70;;;8.20;1.00;;;;;;5078587;28;20048;-81
2022/12/30 10:20:32;;;;;;;3.03;0.70;;;8.30;1.00;;;;;;5087940;28;20043;-83
2022/12/30 10:23:43;;;;;;;4.07;1.95;;;8.40;1.00;;;;;;5093378;28;20434;-81
2022/12/30 10:26:20;;;;;;;4.72;1.30;;;8.50;1.00;;;;;;5084352;28;20047;-81
2022/12/30 10:28:56;;;;;;;1.67;0.70;;;8.60;1.00;;;;;;5076010;28;20036;-81
2022/12/30 10:31:25;;;;;;;5.72;1.05;;;8.60;1.00;;;;;;5086589;28;20051;-82
2022/12/30 10:33:54;;;;;;;2.55;0.70;;;8.60;1.00;;;;;;5094676;28;20381;-82
2022/12/30 10:36:26;;;;;;;3.67;1.50;;;8.80;1.00;;;;;;5076041;28;20047;-80
2022/12/30 10:39:17;;;;;;;3.25;1.20;;;8.80;1.00;;;;;;5092636;28;20071;-80
2022/12/30 10:42:14;;;;;;;2.40;1.35;;;8.90;1.00;;;;;;5074544;28;20048;-81
2022/12/30 10:45:00;;;;;;;6.80;3.30;;;8.90;1.00;;;;;;5087480;28;20393;-79
2022/12/30 10:48:07;;;;;;;2.30;0.60;;;9.00;1.00;;;;;;5092931;28;20040;-78
2022/12/30 10:50:43;;;;;;;2.25;0.57;;;9.00;1.00;;;;;;5091239;28;20149;-78
2022/12/30 10:53:15;;;;;;;2.80;0.90;;;9.10;1.00;;;;;;5093476;28;20040;-80
2022/12/30 10:55:49;;;;;;;1.52;0.57;;;9.20;1.00;;;;;;5093540;28;20036;-79
2022/12/30 10:58:37;;;;;;;2.85;0.63;;;9.30;1.00;;;;;;5093063;28;20044;-79
2022/12/30 11:01:03;;;;;;;2.85;0.95;;;9.40;1.00;;;;;;5085588;28;20035;-78
2022/12/30 11:03:29;;;;;;;1.80;0.70;;;9.50;1.00;;;;;;5093986;28;20039;-79
2022/12/30 11:05:56;;;;;;;4.35;0.98;;;9.40;1.00;;;;;;5092094;28;20039;-79
2022/12/30 11:08:29;;;;;;;4.25;1.20;;;9.50;1.00;;;;;;5092471;28;20491;-79
2022/12/30 11:11:01;;;;;;;3.10;0.98;;;9.50;1.00;;;;;;5090829;28;20032;-79
2022/12/30 11:16:14;;;;;;;5.45;1.95;;;9.60;1.00;;;;;;5088199;28;20051;-79
2022/12/30 11:18:45;;;;;;;4.20;2.15;;;9.70;1.00;;;;;;5092402;28;20374;-78
2022/12/30 11:21:11;;;;;;;;;;;9.70;1.00;;;;;;5092386;28;20031;-78
2022/12/30 11:23:42;;;;;;;4.38;1.40;;;9.70;1.00;;;;;;5093585;28;20375;-79
2022/12/30 11:26:17;;;;;;;4.32;1.38;;;9.60;1.00;;;;;;5092656;28;20051;-79
2022/12/30 11:28:45;;;;;;;4.95;0.90;;;9.50;1.00;;;;;;5091811;28;20036;-80
2022/12/30 11:31:13;;;;;;;3.50;2.25;;;9.40;1.00;;;;;;5104327;28;20032;-79
2022/12/30 11:33:53;;;;;;;3.97;1.17;;;9.40;1.00;;;;;;5093627;28;20036;-79
2022/12/30 11:36:28;;;;;;;1.60;0.88;;;9.30;1.00;;;;;;5093648;28;20032;-78
2022/12/30 11:38:56;;;;;;;5.68;1.67;;;9.40;1.00;;;;;;5092819;28;20036;-78
2022/12/30 11:41:26;;;;;;;4.63;3.03;;;9.30;1.00;;;;;;5090924;28;20043;-79
2022/12/30 11:43:58;;;;;;;2.95;1.75;;;9.30;1.00;;;;;;5093030;28;20454;-79
2022/12/30 11:46:32;;;;;;;2.58;1.05;;;9.20;1.00;;;;;;5092771;28;20188;-78
2022/12/30 11:49:02;;;;;;;2.38;1.30;;;9.20;1.00;;;;;;5074735;28;20047;-79
2022/12/30 11:51:43;;;;;;;3.70;1.33;;;9.10;1.00;;;;;;5090512;28;20393;-78
2022/12/30 11:54:16;;;;;;;10.48;6.55;;;9.10;1.00;;;;;;5092101;28;20028;-79
2022/12/30 11:57:06;;;;;;;5.45;1.55;;;9.10;1.00;;;;;;5091517;28;20032;-78
2022/12/30 11:59:47;;;;;;;3.40;0.90;;;9.10;1.00;;;;;;5075305;28;20067;-78
2022/12/30 12:02:37;;;;;;;3.30;0.80;;;9.10;1.00;;;;;;5090756;28;20055;-79
2022/12/30 12:05:31;;;;;;;2.53;0.85;;;9.10;1.00;;;;;;5092754;28;20036;-78
2022/12/30 12:08:19;;;;;;;2.22;0.93;;;9.10;1.00;;;;;;5092454;28;20035;-79
2022/12/30 12:10:55;;;;;;;2.47;0.90;;;9.10;1.00;;;;;;5089697;28;20487;-79
2022/12/30 12:13:37;;;;;;;2.47;0.73;;;9.10;1.00;;;;;;5091573;28;20040;-79
2022/12/30 12:16:05;;;;;;;1.70;0.63;;;9.10;1.00;;;;;;5090743;28;20053;-80
2022/12/30 12:18:40;;;;;;;1.77;0.93;;;9.10;1.00;;;;;;5092757;28;20458;-80
2022/12/30 12:21:25;;;;;;;4.90;0.82;;;9.20;1.00;;;;;;5088913;28;20048;-79
2022/12/30 12:23:58;;;;;;;1.70;0.90;;;9.20;1.00;;;;;;5090914;28;20051;-81
2022/12/30 12:26:39;;;;;;;4.65;0.82;;;9.20;1.00;;;;;;5092363;28;20043;-81
2022/12/30 12:29:05;;;;;;;;;;;9.20;1.00;;;;;;5090812;28;20051;-80
2022/12/30 12:31:40;;;;;;;1.45;0.77;;;9.20;1.00;;;;;;5089843;28;19912;-80
2022/12/30 12:34:10;;;;;;;3.90;0.73;;;9.30;1.00;;;;;;5091892;28;20472;-79
2022/12/30 12:36:51;;;;;;;3.05;1.50;;;9.30;1.00;;;;;;5091154;28;20036;-80
2022/12/30 12:39:30;;;;;;;5.75;1.33;;;9.20;1.00;;;;;;5091133;28;20036;-80
2022/12/30 12:42:07;;;;;;;3.58;0.90;;;9.30;1.00;;;;;;5090391;28;20036;-80
2022/12/30 12:44:45;;;;;;;2.97;0.50;;;9.30;1.00;;;;;;5103423;28;20071;-80
2022/12/30 12:47:19;;;;;;;4.03;1.30;;;9.30;1.00;;;;;;5091618;28;20040;-81
2022/12/30 12:50:14;;;;;;;5.25;0.93;;;9.30;1.00;;;;;;5089848;28;20051;-80
2022/12/30 12:52:46;;;;;;;2.22;0.82;;;9.30;1.00;;;;;;5081378;28;20032;-81
2022/12/30 12:55:18;;;;;;;6.65;0.80;;;9.20;1.00;;;;;;5085489;28;20040;-82
2022/12/30 12:58:05;;;;;;;7.35;0.88;;;9.20;1.00;;;;;;5091389;28;20050;-83
2022/12/30 13:00:57;;;;;;;3.97;1.25;;;9.20;1.00;;;;;;5073261;28;20055;-81
2022/12/30 13:03:26;;;;;;;3.25;1.75;;;9.20;1.00;;;;;;5089558;28;20055;-81
2022/12/30 13:06:11;;;;;;;5.63;1.45;;;9.20;1.00;;;;;;5091814;28;20028;-79
2022/12/30 13:09:00;;;;;;;38.80;22.38;;;9.30;1.00;;;;;;5092924;28;20043;-82
2022/12/30 13:11:54;;;;;;;16.88;7.70;;;9.30;1.00;;;;;;5091939;28;20036;-79
2022/12/30 13:14:48;;;;;;;22.92;13.57;;;9.20;1.00;;;;;;5091399;28;20035;-79
2022/12/30 13:17:22;;;;;;;23.35;13.57;;;9.30;1.00;;;;;;5090563;28;20040;-82
2022/12/30 13:19:55;;;;;;;19.00;10.73;;;9.30;1.00;;;;;;5090002;28;20047;-78
2022/12/30 13:22:28;;;;;;;40.47;27.45;;;9.30;1.00;;;;;;5089304;28;20063;-79
2022/12/30 13:24:54;;;;;;;10.43;7.85;;;9.30;1.00;;;;;;5090408;28;20040;-80
2022/12/30 13:27:28;;;;;;;4.18;2.22;;;9.40;1.00;;;;;;5090854;28;20045;-80
2022/12/30 13:29:57;;;;;;;3.10;1.17;;;9.40;1.00;;;;;;5091406;28;20369;-80
2022/12/30 13:32:51;;;;;;;1.85;0.65;;;9.50;1.00;;;;;;5072275;28;20059;-82
2022/12/30 13:36:02;;;;;;;1.60;0.80;;;9.50;1.00;;;;;;5088326;28;20669;-81
2022/12/30 13:38:49;;;;;;;3.00;0.73;;;9.60;1.00;;;;;;4996145;28;20057;-80
2022/12/30 13:41:21;;;;;;;4.35;1.52;;;9.50;1.00;;;;;;5029562;28;20045;-82
2022/12/30 13:43:50;;;;;;;2.80;1.17;;;9.50;1.00;;;;;;5054498;28;20053;-81
2022/12/30 13:46:29;;;;;;;1.67;0.82;;;9.50;1.00;;;;;;5090203;28;20035;-80
2022/12/30 13:49:25;;;;;;;2.53;0.90;;;9.50;1.00;;;;;;5090072;28;20036;-79
2022/12/30 13:51:55;;;;;;;2.92;0.77;;;9.50;1.00;;;;;;5088691;28;20040;-80
2022/12/30 13:54:21;;;;;;;1.80;0.98;;;9.50;1.00;;;;;;5091382;28;20028;-79
2022/12/30 13:56:50;;;;;;;0.68;0.50;;;9.60;1.00;;;;;;5090922;28;20043;-81
2022/12/30 13:59:29;;;;;;;2.38;1.30;;;9.60;1.00;;;;;;5090560;28;20036;-81
2022/12/30 14:02:20;;;;;;;3.80;1.15;;;9.60;1.00;;;;;;5093598;28;20048;-83
2022/12/30 14:04:49;;;;;;;2.35;0.80;;;9.60;1.00;;;;;;5095011;28;20035;-79
2022/12/30 14:07:37;;;;;;;2.00;0.82;;;9.60;1.00;;;;;;5093719;28;20036;-80
2022/12/30 14:10:44;;;;;;;2.67;1.13;;;9.60;1.00;;;;;;5093310;28;20040;-79